sensor_id;sensor_type;location;lat;lon;timestamp;P1;durP1;ratioP1;P2;durP2;ratioP2
3095;SDS011;1558;42.700;23.360;2022-10-16T00:01:51;12.63;;;10.33;;
3095;SDS011;1558;42.700;23.360;2022-10-16T00:04:19;12.20;;;10.90;;
3095;SDS011;1558;42.700;23.360;2022-10-16T00:06:47;12.43;;;10.87;;
3095;SDS011;1558;42.700;23.360;2022-10-16T00:09:15;12.67;;;10.73;;
3095;SDS011;1558;42.700;23.360;2022-10-16T00:11:45;12.00;;;10.80;;
3095;SDS011;1558;42.700;23.360;2022-10-16T00:14:13;13.50;;;11.17;;
3095;SDS011;1558;42.700;23.360;2022-10-16T00:16:42;11.77;;;10.67;;
3095;SDS011;1558;42.700;23.360;2022-10-16T00:19:13;15.10;;;10.90;;
3095;SDS011;1558;42.700;23.360;2022-10-16T00:21:41;15.03;;;11.47;;
3095;SDS011;1558;42.700;23.360;2022-10-16T00:24:09;13.83;;;10.87;;
3095;SDS011;1558;42.700;23.360;2022-10-16T00:26:40;14.33;;;10.77;;
3095;SDS011;1558;42.700;23.360;2022-10-16T00:29:17;13.07;;;11.40;;
3095;SDS011;1558;42.700;23.360;2022-10-16T00:31:44;11.70;;;10.50;;
3095;SDS011;1558;42.700;23.360;2022-10-16T00:34:16;12.87;;;10.40;;
3095;SDS011;1558;42.700;23.360;2022-10-16T00:36:48;12.10;;;10.57;;
3095;SDS011;1558;42.700;23.360;2022-10-16T00:39:22;14.87;;;11.53;;
3095;SDS011;1558;42.700;23.360;2022-10-16T00:41:51;12.63;;;11.47;;
3095;SDS011;1558;42.700;23.360;2022-10-16T00:47:17;15.03;;;11.77;;
3095;SDS011;1558;42.700;23.360;2022-10-16T00:49:49;12.43;;;11.17;;
3095;SDS011;1558;42.700;23.360;2022-10-16T00:52:19;13.07;;;11.50;;
3095;SDS011;1558;42.700;23.360;2022-10-16T00:58:24;12.87;;;11.63;;
3095;SDS011;1558;42.700;23.360;2022-10-16T01:05:56;12.17;;;10.87;;
3095;SDS011;1558;42.700;23.360;2022-10-16T01:08:44;12.83;;;11.53;;
3095;SDS011;1558;42.700;23.360;2022-10-16T01:11:22;17.47;;;11.17;;
3095;SDS011;1558;42.700;23.360;2022-10-16T01:13:55;14.53;;;11.63;;
3095;SDS011;1558;42.700;23.360;2022-10-16T01:16:31;11.80;;;10.53;;
3095;SDS011;1558;42.700;23.360;2022-10-16T01:19:12;13.03;;;11.33;;
3095;SDS011;1558;42.700;23.360;2022-10-16T01:22:18;12.50;;;11.20;;
3095;SDS011;1558;42.700;23.360;2022-10-16T01:25:12;13.20;;;10.60;;
3095;SDS011;1558;42.700;23.360;2022-10-16T01:28:09;11.70;;;9.80;;
3095;SDS011;1558;42.700;23.360;2022-10-16T01:30:46;11.87;;;10.43;;
3095;SDS011;1558;42.700;23.360;2022-10-16T01:33:36;11.50;;;10.37;;
3095;SDS011;1558;42.700;23.360;2022-10-16T01:36:34;11.27;;;10.07;;
3095;SDS011;1558;42.700;23.360;2022-10-16T01:39:54;13.73;;;10.77;;
3095;SDS011;1558;42.700;23.360;2022-10-16T01:42:28;12.73;;;10.77;;
3095;SDS011;1558;42.700;23.360;2022-10-16T01:45:07;11.87;;;10.30;;
3095;SDS011;1558;42.700;23.360;2022-10-16T01:51:26;11.33;;;9.97;;
3095;SDS011;1558;42.700;23.360;2022-10-16T01:55:22;13.43;;;9.77;;
3095;SDS011;1558;42.700;23.360;2022-10-16T01:58:18;12.73;;;9.30;;
3095;SDS011;1558;42.700;23.360;2022-10-16T02:04:16;15.43;;;10.37;;
3095;SDS011;1558;42.700;23.360;2022-10-16T02:14:34;11.40;;;10.20;;
3095;SDS011;1558;42.700;23.360;2022-10-16T02:17:10;17.70;;;10.83;;
3095;SDS011;1558;42.700;23.360;2022-10-16T02:19:50;13.50;;;11.03;;
3095;SDS011;1558;42.700;23.360;2022-10-16T02:22:21;12.37;;;10.67;;
3095;SDS011;1558;42.700;23.360;2022-10-16T02:25:02;17.27;;;11.33;;
3095;SDS011;1558;42.700;23.360;2022-10-16T02:27:34;14.00;;;10.93;;
3095;SDS011;1558;42.700;23.360;2022-10-16T02:30:09;13.47;;;10.60;;
3095;SDS011;1558;42.700;23.360;2022-10-16T02:32:42;18.33;;;11.20;;
3095;SDS011;1558;42.700;23.360;2022-10-16T02:35:12;12.83;;;10.37;;
3095;SDS011;1558;42.700;23.360;2022-10-16T02:37:41;11.33;;;10.13;;
3095;SDS011;1558;42.700;23.360;2022-10-16T02:40:15;11.73;;;9.10;;
3095;SDS011;1558;42.700;23.360;2022-10-16T02:42:50;12.53;;;9.80;;
3095;SDS011;1558;42.700;23.360;2022-10-16T02:45:20;14.67;;;10.60;;
3095;SDS011;1558;42.700;23.360;2022-10-16T02:48:34;11.53;;;10.43;;
3095;SDS011;1558;42.700;23.360;2022-10-16T02:51:53;11.37;;;10.17;;
3095;SDS011;1558;42.700;23.360;2022-10-16T02:54:54;11.47;;;9.30;;
3095;SDS011;1558;42.700;23.360;2022-10-16T02:58:26;11.57;;;10.37;;
3095;SDS011;1558;42.700;23.360;2022-10-16T03:01:31;13.33;;;10.13;;
3095;SDS011;1558;42.700;23.360;2022-10-16T03:04:44;12.70;;;9.73;;
3095;SDS011;1558;42.700;23.360;2022-10-16T03:07:58;11.13;;;9.40;;
3095;SDS011;1558;42.700;23.360;2022-10-16T03:10:30;11.07;;;9.93;;
3095;SDS011;1558;42.700;23.360;2022-10-16T03:12:58;10.40;;;9.33;;
3095;SDS011;1558;42.700;23.360;2022-10-16T03:24:40;11.63;;;10.13;;
3095;SDS011;1558;42.700;23.360;2022-10-16T03:28:37;13.50;;;10.50;;
3095;SDS011;1558;42.700;23.360;2022-10-16T03:39:44;12.73;;;10.77;;
3095;SDS011;1558;42.700;23.360;2022-10-16T04:06:01;14.77;;;11.27;;
3095;SDS011;1558;42.700;23.360;2022-10-16T04:08:57;17.27;;;11.60;;
3095;SDS011;1558;42.700;23.360;2022-10-16T04:11:31;13.23;;;11.63;;
3095;SDS011;1558;42.700;23.360;2022-10-16T04:14:28;11.80;;;10.53;;
3095;SDS011;1558;42.700;23.360;2022-10-16T04:24:08;18.07;;;11.60;;
3095;SDS011;1558;42.700;23.360;2022-10-16T04:27:17;22.70;;;13.20;;
3095;SDS011;1558;42.700;23.360;2022-10-16T04:29:57;17.73;;;13.27;;
3095;SDS011;1558;42.700;23.360;2022-10-16T04:32:55;15.30;;;11.70;;
3095;SDS011;1558;42.700;23.360;2022-10-16T04:35:43;15.53;;;11.87;;
3095;SDS011;1558;42.700;23.360;2022-10-16T04:39:00;16.37;;;12.67;;
3095;SDS011;1558;42.700;23.360;2022-10-16T04:42:54;17.30;;;12.33;;
3095;SDS011;1558;42.700;23.360;2022-10-16T04:45:54;17.30;;;12.43;;
3095;SDS011;1558;42.700;23.360;2022-10-16T04:48:38;14.93;;;11.67;;
3095;SDS011;1558;42.700;23.360;2022-10-16T04:51:08;14.20;;;11.03;;
3095;SDS011;1558;42.700;23.360;2022-10-16T04:53:40;14.77;;;12.40;;
3095;SDS011;1558;42.700;23.360;2022-10-16T04:56:17;18.57;;;12.30;;
3095;SDS011;1558;42.700;23.360;2022-10-16T04:59:17;15.27;;;13.00;;
3095;SDS011;1558;42.700;23.360;2022-10-16T05:01:48;14.60;;;12.50;;
3095;SDS011;1558;42.700;23.360;2022-10-16T05:08:29;17.20;;;11.70;;
3095;SDS011;1558;42.700;23.360;2022-10-16T05:11:14;16.43;;;11.20;;
3095;SDS011;1558;42.700;23.360;2022-10-16T05:13:55;14.90;;;11.00;;
3095;SDS011;1558;42.700;23.360;2022-10-16T05:20:20;16.53;;;10.80;;
3095;SDS011;1558;42.700;23.360;2022-10-16T05:23:12;15.70;;;11.17;;
3095;SDS011;1558;42.700;23.360;2022-10-16T05:25:52;17.67;;;10.67;;
3095;SDS011;1558;42.700;23.360;2022-10-16T05:28:34;13.10;;;10.53;;
3095;SDS011;1558;42.700;23.360;2022-10-16T05:37:37;15.27;;;11.63;;
3095;SDS011;1558;42.700;23.360;2022-10-16T05:40:50;12.97;;;10.40;;
3095;SDS011;1558;42.700;23.360;2022-10-16T05:44:04;16.30;;;12.00;;
3095;SDS011;1558;42.700;23.360;2022-10-16T05:47:14;16.30;;;13.60;;
3095;SDS011;1558;42.700;23.360;2022-10-16T05:49:54;20.50;;;14.40;;
3095;SDS011;1558;42.700;23.360;2022-10-16T05:52:22;19.50;;;14.27;;
3095;SDS011;1558;42.700;23.360;2022-10-16T05:54:50;25.27;;;14.53;;
3095;SDS011;1558;42.700;23.360;2022-10-16T05:57:18;19.63;;;13.33;;
3095;SDS011;1558;42.700;23.360;2022-10-16T05:59:46;20.57;;;13.93;;
3095;SDS011;1558;42.700;23.360;2022-10-16T06:02:14;19.63;;;13.53;;
3095;SDS011;1558;42.700;23.360;2022-10-16T06:04:42;17.00;;;12.77;;
3095;SDS011;1558;42.700;23.360;2022-10-16T06:07:11;12.80;;;11.47;;
3095;SDS011;1558;42.700;23.360;2022-10-16T06:09:39;11.40;;;10.17;;
3095;SDS011;1558;42.700;23.360;2022-10-16T06:12:07;12.57;;;9.73;;
3095;SDS011;1558;42.700;23.360;2022-10-16T06:14:35;10.17;;;9.10;;
3095;SDS011;1558;42.700;23.360;2022-10-16T06:17:04;10.80;;;9.23;;
3095;SDS011;1558;42.700;23.360;2022-10-16T06:19:32;11.60;;;9.20;;
3095;SDS011;1558;42.700;23.360;2022-10-16T06:22:00;10.93;;;9.77;;
3095;SDS011;1558;42.700;23.360;2022-10-16T06:24:31;14.03;;;10.13;;
3095;SDS011;1558;42.700;23.360;2022-10-16T06:26:59;10.47;;;9.37;;
3095;SDS011;1558;42.700;23.360;2022-10-16T06:29:27;10.77;;;9.40;;
3095;SDS011;1558;42.700;23.360;2022-10-16T06:31:55;11.37;;;10.13;;
3095;SDS011;1558;42.700;23.360;2022-10-16T06:34:23;11.20;;;9.53;;
3095;SDS011;1558;42.700;23.360;2022-10-16T06:36:51;14.53;;;13.03;;
3095;SDS011;1558;42.700;23.360;2022-10-16T06:39:19;13.70;;;11.97;;
3095;SDS011;1558;42.700;23.360;2022-10-16T06:41:48;11.90;;;10.33;;
3095;SDS011;1558;42.700;23.360;2022-10-16T06:44:16;10.77;;;9.67;;
3095;SDS011;1558;42.700;23.360;2022-10-16T06:46:44;10.97;;;9.97;;
3095;SDS011;1558;42.700;23.360;2022-10-16T06:49:12;10.83;;;9.73;;
3095;SDS011;1558;42.700;23.360;2022-10-16T06:51:42;10.87;;;9.77;;
3095;SDS011;1558;42.700;23.360;2022-10-16T06:54:09;10.43;;;9.47;;
3095;SDS011;1558;42.700;23.360;2022-10-16T06:56:37;10.23;;;9.23;;
3095;SDS011;1558;42.700;23.360;2022-10-16T06:59:07;12.77;;;10.20;;
3095;SDS011;1558;42.700;23.360;2022-10-16T07:01:34;16.42;;;10.93;;
3095;SDS011;1558;42.700;23.360;2022-10-16T07:04:02;11.73;;;10.38;;
3095;SDS011;1558;42.700;23.360;2022-10-16T07:06:31;13.82;;;10.93;;
3095;SDS011;1558;42.700;23.360;2022-10-16T07:09:01;11.95;;;10.75;;
3095;SDS011;1558;42.700;23.360;2022-10-16T07:11:33;12.43;;;10.73;;
3095;SDS011;1558;42.700;23.360;2022-10-16T07:14:02;11.07;;;9.93;;
3095;SDS011;1558;42.700;23.360;2022-10-16T07:16:32;14.52;;;10.32;;
3095;SDS011;1558;42.700;23.360;2022-10-16T07:19:00;12.00;;;10.90;;
3095;SDS011;1558;42.700;23.360;2022-10-16T07:21:30;11.52;;;10.48;;
3095;SDS011;1558;42.700;23.360;2022-10-16T07:24:03;10.88;;;9.95;;
3095;SDS011;1558;42.700;23.360;2022-10-16T07:26:34;11.32;;;10.32;;
3095;SDS011;1558;42.700;23.360;2022-10-16T07:29:03;11.25;;;10.15;;
3095;SDS011;1558;42.700;23.360;2022-10-16T07:31:32;11.95;;;10.75;;
3095;SDS011;1558;42.700;23.360;2022-10-16T07:34:00;12.20;;;10.73;;
3095;SDS011;1558;42.700;23.360;2022-10-16T07:36:28;11.85;;;10.75;;
3095;SDS011;1558;42.700;23.360;2022-10-16T07:38:56;10.50;;;9.55;;
3095;SDS011;1558;42.700;23.360;2022-10-16T07:41:25;11.13;;;10.13;;
3095;SDS011;1558;42.700;23.360;2022-10-16T07:43:54;12.25;;;10.40;;
3095;SDS011;1558;42.700;23.360;2022-10-16T07:46:26;12.38;;;10.80;;
3095;SDS011;1558;42.700;23.360;2022-10-16T07:48:55;14.05;;;12.65;;
3095;SDS011;1558;42.700;23.360;2022-10-16T07:51:24;13.23;;;10.48;;
3095;SDS011;1558;42.700;23.360;2022-10-16T07:53:53;11.52;;;9.98;;
3095;SDS011;1558;42.700;23.360;2022-10-16T07:56:21;10.70;;;9.60;;
3095;SDS011;1558;42.700;23.360;2022-10-16T07:58:49;10.38;;;9.38;;
3095;SDS011;1558;42.700;23.360;2022-10-16T08:01:18;9.30;;;8.45;;
3095;SDS011;1558;42.700;23.360;2022-10-16T08:03:47;9.10;;;8.25;;
3095;SDS011;1558;42.700;23.360;2022-10-16T08:06:18;8.55;;;7.85;;
3095;SDS011;1558;42.700;23.360;2022-10-16T08:08:53;8.95;;;8.05;;
3095;SDS011;1558;42.700;23.360;2022-10-16T08:11:21;9.75;;;8.27;;
3095;SDS011;1558;42.700;23.360;2022-10-16T08:13:50;9.70;;;8.77;;
3095;SDS011;1558;42.700;23.360;2022-10-16T08:16:18;10.00;;;9.07;;
3095;SDS011;1558;42.700;23.360;2022-10-16T08:18:46;9.43;;;8.63;;
3095;SDS011;1558;42.700;23.360;2022-10-16T08:21:15;9.82;;;8.77;;
3095;SDS011;1558;42.700;23.360;2022-10-16T08:23:48;9.80;;;8.80;;
3095;SDS011;1558;42.700;23.360;2022-10-16T08:26:23;9.55;;;8.05;;
3095;SDS011;1558;42.700;23.360;2022-10-16T08:28:51;10.05;;;8.30;;
3095;SDS011;1558;42.700;23.360;2022-10-16T08:31:20;8.90;;;8.05;;
3095;SDS011;1558;42.700;23.360;2022-10-16T08:33:48;9.27;;;7.43;;
3095;SDS011;1558;42.700;23.360;2022-10-16T08:36:17;10.57;;;7.55;;
3095;SDS011;1558;42.700;23.360;2022-10-16T08:38:48;7.40;;;6.70;;
3095;SDS011;1558;42.700;23.360;2022-10-16T08:41:31;8.02;;;6.70;;
3095;SDS011;1558;42.700;23.360;2022-10-16T08:44:24;6.97;;;6.40;;
3095;SDS011;1558;42.700;23.360;2022-10-16T08:47:02;7.07;;;6.28;;
3095;SDS011;1558;42.700;23.360;2022-10-16T08:49:40;6.75;;;6.05;;
3095;SDS011;1558;42.700;23.360;2022-10-16T08:52:10;7.72;;;7.03;;
3095;SDS011;1558;42.700;23.360;2022-10-16T08:54:42;6.32;;;5.63;;
3095;SDS011;1558;42.700;23.360;2022-10-16T08:57:14;6.43;;;5.82;;
3095;SDS011;1558;42.700;23.360;2022-10-16T08:59:49;6.65;;;5.47;;
3095;SDS011;1558;42.700;23.360;2022-10-16T09:02:22;6.57;;;5.97;;
3095;SDS011;1558;42.700;23.360;2022-10-16T09:05:10;6.00;;;5.50;;
3095;SDS011;1558;42.700;23.360;2022-10-16T09:07:50;5.90;;;5.05;;
3095;SDS011;1558;42.700;23.360;2022-10-16T09:10:35;6.35;;;5.80;;
3095;SDS011;1558;42.700;23.360;2022-10-16T09:13:14;6.25;;;4.63;;
3095;SDS011;1558;42.700;23.360;2022-10-16T09:15:49;5.07;;;4.68;;
3095;SDS011;1558;42.700;23.360;2022-10-16T09:18:24;5.22;;;4.72;;
3095;SDS011;1558;42.700;23.360;2022-10-16T09:20:59;6.97;;;5.18;;
3095;SDS011;1558;42.700;23.360;2022-10-16T09:23:36;4.72;;;4.32;;
3095;SDS011;1558;42.700;23.360;2022-10-16T09:26:09;9.25;;;5.10;;
3095;SDS011;1558;42.700;23.360;2022-10-16T09:28:39;4.38;;;4.03;;
3095;SDS011;1558;42.700;23.360;2022-10-16T09:31:10;5.05;;;4.65;;
3095;SDS011;1558;42.700;23.360;2022-10-16T09:33:43;5.25;;;4.80;;
3095;SDS011;1558;42.700;23.360;2022-10-16T09:36:15;4.88;;;4.50;;
3095;SDS011;1558;42.700;23.360;2022-10-16T09:38:45;5.55;;;5.05;;
3095;SDS011;1558;42.700;23.360;2022-10-16T09:41:18;5.03;;;4.40;;
3095;SDS011;1558;42.700;23.360;2022-10-16T09:43:48;4.88;;;4.45;;
3095;SDS011;1558;42.700;23.360;2022-10-16T09:46:27;5.35;;;4.72;;
3095;SDS011;1558;42.700;23.360;2022-10-16T09:48:57;5.57;;;4.82;;
3095;SDS011;1558;42.700;23.360;2022-10-16T09:51:27;8.82;;;7.95;;
3095;SDS011;1558;42.700;23.360;2022-10-16T09:53:57;5.32;;;4.82;;
3095;SDS011;1558;42.700;23.360;2022-10-16T09:56:28;5.90;;;4.57;;
3095;SDS011;1558;42.700;23.360;2022-10-16T09:58:59;5.10;;;4.70;;
3095;SDS011;1558;42.700;23.360;2022-10-16T10:01:30;5.40;;;5.00;;
3095;SDS011;1558;42.700;23.360;2022-10-16T10:03:59;5.90;;;4.55;;
3095;SDS011;1558;42.700;23.360;2022-10-16T10:06:30;5.20;;;4.70;;
3095;SDS011;1558;42.700;23.360;2022-10-16T10:09:05;4.68;;;4.28;;
3095;SDS011;1558;42.700;23.360;2022-10-16T10:11:43;5.65;;;4.60;;
3095;SDS011;1558;42.700;23.360;2022-10-16T10:14:21;5.63;;;4.75;;
3095;SDS011;1558;42.700;23.360;2022-10-16T10:16:52;6.47;;;5.18;;
3095;SDS011;1558;42.700;23.360;2022-10-16T10:19:28;6.50;;;5.13;;
3095;SDS011;1558;42.700;23.360;2022-10-16T10:21:58;5.72;;;5.13;;
3095;SDS011;1558;42.700;23.360;2022-10-16T10:24:26;9.93;;;6.95;;
3095;SDS011;1558;42.700;23.360;2022-10-16T10:26:57;6.85;;;5.63;;
3095;SDS011;1558;42.700;23.360;2022-10-16T10:29:37;8.88;;;7.97;;
3095;SDS011;1558;42.700;23.360;2022-10-16T10:32:19;5.93;;;5.32;;
3095;SDS011;1558;42.700;23.360;2022-10-16T10:35:02;6.20;;;5.15;;
3095;SDS011;1558;42.700;23.360;2022-10-16T10:37:44;5.63;;;5.13;;
3095;SDS011;1558;42.700;23.360;2022-10-16T10:40:27;5.13;;;4.72;;
3095;SDS011;1558;42.700;23.360;2022-10-16T10:43:04;5.30;;;4.93;;
3095;SDS011;1558;42.700;23.360;2022-10-16T10:45:44;6.65;;;6.03;;
3095;SDS011;1558;42.700;23.360;2022-10-16T10:48:17;5.32;;;4.82;;
3095;SDS011;1558;42.700;23.360;2022-10-16T10:51:00;5.55;;;4.97;;
3095;SDS011;1558;42.700;23.360;2022-10-16T10:53:36;5.10;;;4.70;;
3095;SDS011;1558;42.700;23.360;2022-10-16T10:56:14;5.32;;;4.82;;
3095;SDS011;1558;42.700;23.360;2022-10-16T10:59:09;5.15;;;4.75;;
3095;SDS011;1558;42.700;23.360;2022-10-16T11:01:54;5.57;;;4.78;;
3095;SDS011;1558;42.700;23.360;2022-10-16T11:04:31;7.80;;;4.93;;
3095;SDS011;1558;42.700;23.360;2022-10-16T11:07:09;5.85;;;5.35;;
3095;SDS011;1558;42.700;23.360;2022-10-16T11:09:44;6.70;;;4.70;;
3095;SDS011;1558;42.700;23.360;2022-10-16T11:12:16;5.25;;;4.45;;
3095;SDS011;1558;42.700;23.360;2022-10-16T11:14:48;4.95;;;4.55;;
3095;SDS011;1558;42.700;23.360;2022-10-16T11:17:22;5.47;;;4.88;;
3095;SDS011;1558;42.700;23.360;2022-10-16T11:19:54;5.30;;;4.82;;
3095;SDS011;1558;42.700;23.360;2022-10-16T11:22:27;7.70;;;5.65;;
3095;SDS011;1558;42.700;23.360;2022-10-16T11:25:00;6.80;;;5.57;;
3095;SDS011;1558;42.700;23.360;2022-10-16T11:27:40;5.60;;;5.10;;
3095;SDS011;1558;42.700;23.360;2022-10-16T11:30:14;9.38;;;7.13;;
3095;SDS011;1558;42.700;23.360;2022-10-16T11:35:39;5.32;;;4.90;;
3095;SDS011;1558;42.700;23.360;2022-10-16T11:38:14;5.40;;;4.90;;
3095;SDS011;1558;42.700;23.360;2022-10-16T11:40:45;5.68;;;5.20;;
3095;SDS011;1558;42.700;23.360;2022-10-16T11:43:19;7.07;;;4.90;;
3095;SDS011;1558;42.700;23.360;2022-10-16T11:45:54;4.70;;;4.20;;
3095;SDS011;1558;42.700;23.360;2022-10-16T11:48:27;5.38;;;4.90;;
3095;SDS011;1558;42.700;23.360;2022-10-16T11:51:01;4.57;;;4.20;;
3095;SDS011;1558;42.700;23.360;2022-10-16T11:53:39;5.97;;;4.45;;
3095;SDS011;1558;42.700;23.360;2022-10-16T11:56:13;5.43;;;4.93;;
3095;SDS011;1558;42.700;23.360;2022-10-16T11:58:45;4.65;;;4.22;;
3095;SDS011;1558;42.700;23.360;2022-10-16T12:01:24;5.28;;;4.70;;
3095;SDS011;1558;42.700;23.360;2022-10-16T12:04:06;5.22;;;4.75;;
3095;SDS011;1558;42.700;23.360;2022-10-16T12:06:45;5.32;;;4.63;;
3095;SDS011;1558;42.700;23.360;2022-10-16T12:09:20;5.15;;;4.72;;
3095;SDS011;1558;42.700;23.360;2022-10-16T12:11:50;5.47;;;4.97;;
3095;SDS011;1558;42.700;23.360;2022-10-16T12:14:19;5.55;;;4.55;;
3095;SDS011;1558;42.700;23.360;2022-10-16T12:17:24;7.53;;;4.93;;
3095;SDS011;1558;42.700;23.360;2022-10-16T12:19:57;5.07;;;4.63;;
3095;SDS011;1558;42.700;23.360;2022-10-16T12:22:27;5.05;;;4.00;;
3095;SDS011;1558;42.700;23.360;2022-10-16T12:24:57;4.70;;;4.35;;
3095;SDS011;1558;42.700;23.360;2022-10-16T12:27:27;5.15;;;4.65;;
3095;SDS011;1558;42.700;23.360;2022-10-16T12:29:57;5.00;;;4.50;;
3095;SDS011;1558;42.700;23.360;2022-10-16T12:32:29;5.47;;;4.82;;
3095;SDS011;1558;42.700;23.360;2022-10-16T12:35:17;5.60;;;5.03;;
3095;SDS011;1558;42.700;23.360;2022-10-16T12:37:48;5.88;;;4.50;;
3095;SDS011;1558;42.700;23.360;2022-10-16T12:40:23;5.20;;;4.70;;
3095;SDS011;1558;42.700;23.360;2022-10-16T12:42:55;4.03;;;3.60;;
3095;SDS011;1558;42.700;23.360;2022-10-16T12:45:24;5.03;;;4.53;;
3095;SDS011;1558;42.700;23.360;2022-10-16T12:47:56;7.40;;;6.55;;
3095;SDS011;1558;42.700;23.360;2022-10-16T12:50:27;5.90;;;5.40;;
3095;SDS011;1558;42.700;23.360;2022-10-16T12:52:58;5.57;;;5.07;;
3095;SDS011;1558;42.700;23.360;2022-10-16T12:55:27;5.00;;;4.35;;
3095;SDS011;1558;42.700;23.360;2022-10-16T12:58:09;4.47;;;4.05;;
3095;SDS011;1558;42.700;23.360;2022-10-16T13:00:50;4.82;;;4.43;;
3095;SDS011;1558;42.700;23.360;2022-10-16T13:03:29;36.47;;;19.52;;
3095;SDS011;1558;42.700;23.360;2022-10-16T13:06:19;6.30;;;3.88;;
3095;SDS011;1558;42.700;23.360;2022-10-16T13:12:01;6.38;;;4.68;;
3095;SDS011;1558;42.700;23.360;2022-10-16T13:17:49;4.88;;;4.25;;
3095;SDS011;1558;42.700;23.360;2022-10-16T13:20:28;15.90;;;9.15;;
3095;SDS011;1558;42.700;23.360;2022-10-16T13:23:03;4.55;;;4.10;;
3095;SDS011;1558;42.700;23.360;2022-10-16T13:25:45;6.40;;;5.70;;
3095;SDS011;1558;42.700;23.360;2022-10-16T13:28:27;4.63;;;4.22;;
3095;SDS011;1558;42.700;23.360;2022-10-16T13:30:58;4.07;;;3.67;;
3095;SDS011;1558;42.700;23.360;2022-10-16T13:33:30;4.30;;;3.90;;
3095;SDS011;1558;42.700;23.360;2022-10-16T13:36:02;5.47;;;3.80;;
3095;SDS011;1558;42.700;23.360;2022-10-16T13:38:32;3.28;;;2.97;;
3095;SDS011;1558;42.700;23.360;2022-10-16T13:41:03;4.28;;;3.35;;
3095;SDS011;1558;42.700;23.360;2022-10-16T13:43:32;4.18;;;3.88;;
3095;SDS011;1558;42.700;23.360;2022-10-16T13:46:03;3.97;;;3.60;;
3095;SDS011;1558;42.700;23.360;2022-10-16T13:48:33;5.88;;;3.90;;
3095;SDS011;1558;42.700;23.360;2022-10-16T13:51:04;4.57;;;3.72;;
3095;SDS011;1558;42.700;23.360;2022-10-16T13:53:38;5.65;;;3.80;;
3095;SDS011;1558;42.700;23.360;2022-10-16T13:56:07;8.77;;;4.60;;
3095;SDS011;1558;42.700;23.360;2022-10-16T13:58:40;6.78;;;4.13;;
3095;SDS011;1558;42.700;23.360;2022-10-16T14:01:15;5.90;;;5.10;;
3095;SDS011;1558;42.700;23.360;2022-10-16T14:03:44;4.18;;;3.70;;
3095;SDS011;1558;42.700;23.360;2022-10-16T14:06:15;7.07;;;4.00;;
3095;SDS011;1558;42.700;23.360;2022-10-16T14:08:48;5.57;;;4.10;;
3095;SDS011;1558;42.700;23.360;2022-10-16T14:11:21;13.20;;;8.43;;
3095;SDS011;1558;42.700;23.360;2022-10-16T14:13:50;6.05;;;4.38;;
3095;SDS011;1558;42.700;23.360;2022-10-16T14:16:20;3.63;;;3.13;;
3095;SDS011;1558;42.700;23.360;2022-10-16T14:18:51;5.93;;;3.80;;
3095;SDS011;1558;42.700;23.360;2022-10-16T14:21:25;5.87;;;3.83;;
3095;SDS011;1558;42.700;23.360;2022-10-16T14:23:53;5.43;;;3.20;;
3095;SDS011;1558;42.700;23.360;2022-10-16T14:26:22;3.93;;;3.30;;
3095;SDS011;1558;42.700;23.360;2022-10-16T14:29:01;4.83;;;3.53;;
3095;SDS011;1558;42.700;23.360;2022-10-16T14:31:38;4.43;;;3.97;;
3095;SDS011;1558;42.700;23.360;2022-10-16T14:36:52;6.17;;;3.90;;
3095;SDS011;1558;42.700;23.360;2022-10-16T14:39:20;5.17;;;3.40;;
3095;SDS011;1558;42.700;23.360;2022-10-16T14:41:50;4.67;;;3.93;;
3095;SDS011;1558;42.700;23.360;2022-10-16T14:44:19;4.90;;;4.40;;
3095;SDS011;1558;42.700;23.360;2022-10-16T14:46:54;4.23;;;3.83;;
3095;SDS011;1558;42.700;23.360;2022-10-16T14:49:22;4.30;;;3.90;;
3095;SDS011;1558;42.700;23.360;2022-10-16T14:51:52;5.63;;;4.60;;
3095;SDS011;1558;42.700;23.360;2022-10-16T14:54:21;6.70;;;3.80;;
3095;SDS011;1558;42.700;23.360;2022-10-16T14:56:49;5.67;;;4.00;;
3095;SDS011;1558;42.700;23.360;2022-10-16T14:59:23;4.77;;;3.90;;
3095;SDS011;1558;42.700;23.360;2022-10-16T15:01:55;5.27;;;4.03;;
3095;SDS011;1558;42.700;23.360;2022-10-16T15:04:23;6.60;;;4.40;;
3095;SDS011;1558;42.700;23.360;2022-10-16T15:06:54;9.13;;;6.97;;
3095;SDS011;1558;42.700;23.360;2022-10-16T15:09:21;5.37;;;4.17;;
3095;SDS011;1558;42.700;23.360;2022-10-16T15:11:50;5.80;;;4.30;;
3095;SDS011;1558;42.700;23.360;2022-10-16T15:14:18;6.47;;;3.63;;
3095;SDS011;1558;42.700;23.360;2022-10-16T15:16:45;7.73;;;4.80;;
3095;SDS011;1558;42.700;23.360;2022-10-16T15:19:13;5.40;;;3.97;;
3095;SDS011;1558;42.700;23.360;2022-10-16T15:21:41;5.27;;;4.30;;
3095;SDS011;1558;42.700;23.360;2022-10-16T15:24:12;8.80;;;5.00;;
3095;SDS011;1558;42.700;23.360;2022-10-16T15:26:46;6.53;;;4.27;;
3095;SDS011;1558;42.700;23.360;2022-10-16T15:29:15;4.90;;;4.03;;
3095;SDS011;1558;42.700;23.360;2022-10-16T15:31:43;5.03;;;4.47;;
3095;SDS011;1558;42.700;23.360;2022-10-16T15:34:13;5.73;;;4.67;;
3095;SDS011;1558;42.700;23.360;2022-10-16T15:36:41;8.00;;;5.53;;
3095;SDS011;1558;42.700;23.360;2022-10-16T15:39:12;9.40;;;5.30;;
3095;SDS011;1558;42.700;23.360;2022-10-16T15:41:41;5.23;;;4.50;;
3095;SDS011;1558;42.700;23.360;2022-10-16T15:44:10;6.57;;;4.37;;
3095;SDS011;1558;42.700;23.360;2022-10-16T15:46:38;6.10;;;4.60;;
3095;SDS011;1558;42.700;23.360;2022-10-16T15:49:06;6.10;;;4.30;;
3095;SDS011;1558;42.700;23.360;2022-10-16T15:51:34;6.33;;;4.60;;
3095;SDS011;1558;42.700;23.360;2022-10-16T15:54:05;10.20;;;5.70;;
3095;SDS011;1558;42.700;23.360;2022-10-16T15:56:35;7.63;;;4.80;;
3095;SDS011;1558;42.700;23.360;2022-10-16T15:59:03;5.17;;;4.60;;
3095;SDS011;1558;42.700;23.360;2022-10-16T16:01:32;7.83;;;4.70;;
3095;SDS011;1558;42.700;23.360;2022-10-16T16:04:01;5.63;;;4.80;;
3095;SDS011;1558;42.700;23.360;2022-10-16T16:06:45;5.73;;;4.60;;
3095;SDS011;1558;42.700;23.360;2022-10-16T16:09:13;8.90;;;4.70;;
3095;SDS011;1558;42.700;23.360;2022-10-16T16:11:43;4.87;;;4.47;;
3095;SDS011;1558;42.700;23.360;2022-10-16T16:14:11;5.23;;;4.77;;
3095;SDS011;1558;42.700;23.360;2022-10-16T16:16:40;5.80;;;5.20;;
3095;SDS011;1558;42.700;23.360;2022-10-16T16:19:09;7.70;;;4.80;;
3095;SDS011;1558;42.700;23.360;2022-10-16T16:21:37;6.43;;;4.87;;
3095;SDS011;1558;42.700;23.360;2022-10-16T16:24:05;7.83;;;5.73;;
3095;SDS011;1558;42.700;23.360;2022-10-16T16:26:34;7.23;;;6.10;;
3095;SDS011;1558;42.700;23.360;2022-10-16T16:29:08;9.17;;;6.60;;
3095;SDS011;1558;42.700;23.360;2022-10-16T16:31:38;7.73;;;6.77;;
3095;SDS011;1558;42.700;23.360;2022-10-16T16:34:07;7.73;;;6.57;;
3095;SDS011;1558;42.700;23.360;2022-10-16T16:36:36;9.23;;;6.33;;
3095;SDS011;1558;42.700;23.360;2022-10-16T16:39:05;8.83;;;6.70;;
3095;SDS011;1558;42.700;23.360;2022-10-16T16:41:33;10.17;;;7.00;;
3095;SDS011;1558;42.700;23.360;2022-10-16T16:44:02;10.53;;;7.00;;
3095;SDS011;1558;42.700;23.360;2022-10-16T16:46:33;6.63;;;6.00;;
3095;SDS011;1558;42.700;23.360;2022-10-16T16:49:01;9.00;;;6.57;;
3095;SDS011;1558;42.700;23.360;2022-10-16T16:51:30;9.23;;;7.60;;
3095;SDS011;1558;42.700;23.360;2022-10-16T16:54:05;6.83;;;6.13;;
3095;SDS011;1558;42.700;23.360;2022-10-16T16:56:34;8.40;;;6.87;;
3095;SDS011;1558;42.700;23.360;2022-10-16T16:59:02;10.13;;;8.60;;
3095;SDS011;1558;42.700;23.360;2022-10-16T17:01:32;10.87;;;8.50;;
3095;SDS011;1558;42.700;23.360;2022-10-16T17:04:00;12.90;;;8.60;;
3095;SDS011;1558;42.700;23.360;2022-10-16T17:06:29;11.80;;;8.87;;
3095;SDS011;1558;42.700;23.360;2022-10-16T17:09:00;11.27;;;9.90;;
3095;SDS011;1558;42.700;23.360;2022-10-16T17:11:29;14.60;;;11.27;;
3095;SDS011;1558;42.700;23.360;2022-10-16T17:13:58;28.50;;;23.70;;
3095;SDS011;1558;42.700;23.360;2022-10-16T17:16:29;26.47;;;20.33;;
3095;SDS011;1558;42.700;23.360;2022-10-16T17:19:01;18.43;;;16.53;;
3095;SDS011;1558;42.700;23.360;2022-10-16T17:21:30;21.20;;;16.40;;